Time;durP1;ratioP1;P1;durP2;ratioP2;P2;SDS_P1;SDS_P2;PMS_P1;PMS_P2;Temp;Humidity;BMP_temperature;BMP_pressure;BME280_temperature;BME280_humidity;BME280_pressure;Samples;Min_cycle;Max_cycle;Signal;HPM_P1;HPM_P2
2024/04/12 00:01:03;;;;;;;1999.90;999.90;;;14.70;99.90;;;;;;5547465;25;20068;-67
2024/04/12 00:03:31;;;;;;;1999.90;999.90;;;14.70;99.90;;;;;;5521155;26;20017;-68
2024/04/12 00:06:00;;;;;;;1999.90;999.90;;;14.70;99.90;;;;;;5521796;26;20411;-67
2024/04/12 00:08:28;;;;;;;1999.90;999.90;;;14.70;99.90;;;;;;5521105;26;19993;-67
2024/04/12 00:10:59;;;;;;;1999.90;999.90;;;14.70;99.90;;;;;;5522237;26;20004;-71
2024/04/12 00:13:26;;;;;;;1999.90;999.90;;;14.70;99.90;;;;;;5520792;26;20008;-71
2024/04/12 00:15:55;;;;;;;1999.90;999.90;;;14.70;99.90;;;;;;5523154;26;20436;-67
2024/04/12 00:18:28;;;;;;;1999.90;999.90;;;14.70;99.90;;;;;;5523393;26;19998;-67
2024/04/12 00:21:01;;;;;;;1999.90;999.90;;;14.70;99.90;;;;;;5523081;26;20061;-67
2024/04/12 00:23:34;;;;;;;1999.90;999.90;;;14.80;99.90;;;;;;5523058;26;20053;-69
2024/04/12 00:26:00;;;;;;;1999.90;999.90;;;14.90;99.90;;;;;;5523212;26;19990;-70
2024/04/12 00:28:36;;;;;;;1999.90;999.90;;;14.90;99.90;;;;;;5522055;26;19997;-70
2024/04/12 00:31:06;;;;;;;1999.90;999.90;;;15.00;99.90;;;;;;5485683;26;20022;-67
2024/04/12 00:33:33;;;;;;;1999.90;999.90;;;15.10;99.90;;;;;;5486132;26;20006;-67
2024/04/12 00:36:07;;;;;;;1999.90;999.90;;;15.10;99.90;;;;;;5486586;26;20306;-71
2024/04/12 00:38:36;;;;;;;1999.90;999.90;;;15.20;99.90;;;;;;5485797;26;20342;-67
2024/04/12 00:41:18;;;;;;;1999.90;999.90;;;15.20;99.90;;;;;;5486161;26;20002;-70
2024/04/12 00:43:47;;;;;;;1999.90;999.90;;;15.20;99.90;;;;;;5482911;26;20469;-67
2024/04/12 00:46:23;;;;;;;1999.90;999.90;;;15.20;99.90;;;;;;5485636;26;20345;-67
2024/04/12 00:48:54;;;;;;;1999.90;999.90;;;15.30;99.90;;;;;;5486055;26;19994;-71
2024/04/12 00:51:27;;;;;;;1999.90;999.90;;;15.50;99.90;;;;;;5487055;26;20122;-67
2024/04/12 00:53:58;;;;;;;1999.90;999.90;;;15.60;99.90;;;;;;5489585;26;20010;-70
2024/04/12 00:56:27;;;;;;;1999.90;999.90;;;15.70;99.90;;;;;;5511593;26;20404;-70
2024/04/12 00:58:55;;;;;;;1999.90;999.90;;;15.80;99.90;;;;;;5526116;26;20009;-67
2024/04/12 01:01:22;;;;;;;1999.90;999.90;;;15.90;99.90;;;;;;5530488;25;20019;-67
2024/04/12 01:03:53;;;;;;;1999.90;999.90;;;15.90;99.90;;;;;;5563835;25;20008;-67
2024/04/12 01:06:21;;;;;;;1999.90;999.90;;;16.00;99.90;;;;;;5563838;25;19999;-71
2024/04/12 01:08:51;;;;;;;1999.90;999.90;;;16.10;99.90;;;;;;5563902;25;20036;-67
2024/04/12 01:11:19;;;;;;;1999.90;999.90;;;16.20;99.90;;;;;;5563524;25;19997;-70
2024/04/12 01:13:47;;;;;;;1999.90;999.90;;;16.20;99.90;;;;;;5535864;25;20015;-67
2024/04/12 01:16:13;;;;;;;1999.90;999.90;;;16.30;99.90;;;;;;5526101;26;20001;-71
2024/04/12 01:18:39;;;;;;;1999.90;999.90;;;16.40;99.90;;;;;;5526102;26;20483;-71
2024/04/12 01:21:11;;;;;;;1999.90;999.90;;;16.50;99.90;;;;;;5526057;26;19994;-67
2024/04/12 01:23:48;;;;;;;1999.90;999.90;;;16.60;99.90;;;;;;5525850;26;19997;-67
2024/04/12 01:26:17;;;;;;;1999.90;999.90;;;16.60;99.90;;;;;;5525916;26;19990;-67
2024/04/12 01:28:43;;;;;;;1999.90;999.90;;;16.60;99.90;;;;;;5525853;26;19993;-70
2024/04/12 01:31:15;;;;;;;1999.90;999.90;;;16.60;99.90;;;;;;5525910;26;20013;-70
2024/04/12 01:33:42;;;;;;;1999.90;999.90;;;16.50;99.90;;;;;;5526048;26;20007;-67
2024/04/12 01:36:11;;;;;;;1999.90;999.90;;;16.50;99.90;;;;;;5526160;26;20001;-71
2024/04/12 01:38:39;;;;;;;1999.90;999.90;;;16.50;99.90;;;;;;5525787;25;19993;-67
2024/04/12 01:41:05;;;;;;;1999.90;999.90;;;16.40;99.90;;;;;;5525584;26;19997;-70
2024/04/12 01:43:38;;;;;;;1999.90;999.90;;;16.40;99.90;;;;;;5525755;26;19998;-70
2024/04/12 01:46:09;;;;;;;1999.90;999.90;;;16.40;99.90;;;;;;5525451;26;19993;-70
2024/04/12 01:48:35;;;;;;;1999.90;999.90;;;16.50;99.90;;;;;;5525839;26;20038;-67
2024/04/12 01:51:03;;;;;;;1999.90;999.90;;;16.50;99.90;;;;;;5525704;26;20334;-67
2024/04/12 01:53:37;;;;;;;1999.90;999.90;;;16.50;99.90;;;;;;5525430;26;19989;-68
2024/04/12 01:56:04;;;;;;;1999.90;999.90;;;16.50;99.90;;;;;;5525448;25;20015;-67
2024/04/12 01:58:33;;;;;;;1999.90;999.90;;;16.40;99.90;;;;;;5525742;26;20002;-67
2024/04/12 02:01:02;;;;;;;1999.90;999.90;;;16.40;99.90;;;;;;5522501;26;20080;-71
2024/04/12 02:03:30;;;;;;;1999.90;999.90;;;16.50;99.90;;;;;;5524781;26;20029;-67
2024/04/12 02:05:56;;;;;;;1999.90;999.90;;;16.50;99.90;;;;;;5525579;26;19994;-70
2024/04/12 02:08:24;;;;;;;1999.90;999.90;;;16.50;99.90;;;;;;5525629;26;19998;-71
2024/04/12 02:10:50;;;;;;;1999.90;999.90;;;16.60;99.90;;;;;;5525237;26;20001;-67
2024/04/12 02:13:20;;;;;;;1999.90;999.90;;;16.60;99.90;;;;;;5525387;26;19994;-71
2024/04/12 02:15:51;;;;;;;1999.90;999.90;;;16.70;99.90;;;;;;5525482;26;20061;-67
2024/04/12 02:18:21;;;;;;;1999.90;999.90;;;16.70;99.90;;;;;;5525362;26;19990;-69
2024/04/12 02:20:49;;;;;;;1999.90;999.90;;;16.70;99.90;;;;;;5525373;26;19994;-70
2024/04/12 02:23:15;;;;;;;1999.90;999.90;;;16.70;99.90;;;;;;5506116;26;19998;-71
2024/04/12 02:25:41;;;;;;;1999.90;999.90;;;16.80;99.90;;;;;;5488322;26;20052;-67
2024/04/12 02:28:12;;;;;;;1999.90;999.90;;;16.80;99.90;;;;;;5488082;26;20382;-68
2024/04/12 02:30:42;;;;;;;1999.90;999.90;;;16.80;99.90;;;;;;5520045;26;20006;-67
2024/04/12 02:33:16;;;;;;;1999.90;999.90;;;16.80;99.90;;;;;;5525358;26;19993;-70
2024/04/12 02:35:42;;;;;;;1999.90;999.90;;;16.80;99.90;;;;;;5525134;25;19994;-67
2024/04/12 02:38:15;;;;;;;1999.90;999.90;;;16.80;99.90;;;;;;5525538;26;20413;-67
2024/04/12 02:40:44;;;;;;;1999.90;999.90;;;16.90;99.90;;;;;;5525297;26;20079;-67
2024/04/12 02:43:15;;;;;;;1999.90;999.90;;;17.00;99.90;;;;;;5525981;26;19994;-67
2024/04/12 02:45:48;;;;;;;1999.90;999.90;;;17.00;99.90;;;;;;5525317;26;20118;-68
2024/04/12 02:48:16;;;;;;;1999.90;999.90;;;17.00;99.90;;;;;;5525274;26;19989;-71
2024/04/12 02:50:44;;;;;;;1999.90;999.90;;;16.90;99.90;;;;;;5525062;26;20018;-67
2024/04/12 02:53:17;;;;;;;1999.90;999.90;;;16.90;99.90;;;;;;5524773;26;20005;-67
2024/04/12 02:55:43;;;;;;;;;;;16.80;99.90;;;;;;5525497;26;20032;-67
2024/04/12 02:58:09;;;;;;;1999.90;999.90;;;16.80;99.90;;;;;;5524671;26;19924;-67
2024/04/12 03:00:37;;;;;;;1999.90;999.90;;;16.80;99.90;;;;;;5524908;26;20084;-68
2024/04/12 03:03:06;;;;;;;1999.90;999.90;;;16.70;99.90;;;;;;5524542;26;20069;-71
2024/04/12 03:05:32;;;;;;;1999.90;999.90;;;16.70;99.90;;;;;;5524650;26;19990;-67
2024/04/12 03:08:00;;;;;;;1999.90;999.90;;;16.80;99.90;;;;;;5524570;26;19998;-67
2024/04/12 03:10:32;;;;;;;1999.90;999.90;;;16.80;99.90;;;;;;5524281;26;19989;-70
2024/04/12 03:13:00;;;;;;;1999.90;999.90;;;16.90;99.90;;;;;;5523698;26;20017;-67
2024/04/12 03:15:27;;;;;;;1999.90;999.90;;;16.90;99.90;;;;;;5523753;26;20321;-71
2024/04/12 03:17:52;;;;;;;1999.90;999.90;;;17.00;99.90;;;;;;5524692;26;19993;-67
2024/04/12 03:20:20;;;;;;;1999.90;999.90;;;17.00;99.90;;;;;;5524324;26;20008;-67
2024/04/12 03:22:46;;;;;;;1999.90;999.90;;;17.00;99.90;;;;;;5512028;26;19998;-67
2024/04/12 03:25:12;;;;;;;1999.90;999.90;;;17.00;99.90;;;;;;5487147;26;20334;-67
2024/04/12 03:27:39;;;;;;;1999.90;999.90;;;17.00;99.90;;;;;;5487546;26;20025;-71
2024/04/12 03:30:14;;;;;;;1999.90;999.90;;;16.90;99.90;;;;;;5487376;26;20433;-67
2024/04/12 03:32:44;;;;;;;1999.90;999.90;;;16.90;99.90;;;;;;5488165;26;20066;-67
2024/04/12 03:35:16;;;;;;;1999.90;999.90;;;16.90;99.90;;;;;;5487204;26;19998;-67
2024/04/12 03:38:24;;;;;;;1999.90;999.90;;;16.90;99.90;;;;;;5487702;26;19994;-70
2024/04/12 03:40:29;;;;;;;1999.90;999.90;;;16.90;99.90;;;;;;5486979;26;20044;-67
2024/04/12 03:43:02;;;;;;;1999.90;999.90;;;17.00;99.90;;;;;;5486268;26;19994;-67
2024/04/12 03:45:31;;;;;;;1999.90;999.90;;;17.00;99.90;;;;;;5486520;26;20016;-68
2024/04/12 03:47:58;;;;;;;1999.90;999.90;;;17.00;99.90;;;;;;5487125;26;19994;-67
2024/04/12 03:50:30;;;;;;;1999.90;999.90;;;17.00;99.90;;;;;;5487382;26;20000;-67
2024/04/12 03:52:57;;;;;;;1999.90;999.90;;;16.90;99.90;;;;;;5486859;26;20688;-70
2024/04/12 03:55:23;;;;;;;1999.90;999.90;;;16.80;99.90;;;;;;5493011;26;20553;-67
2024/04/12 03:57:51;;;;;;;1999.90;999.90;;;16.70;99.90;;;;;;5523780;26;19997;-67
2024/04/12 04:00:17;;;;;;;1999.90;999.90;;;16.60;99.90;;;;;;5523632;26;19993;-67
2024/04/12 04:02:48;;;;;;;1999.90;999.90;;;16.60;99.90;;;;;;5522935;26;19994;-71
2024/04/12 04:05:17;;;;;;;1999.90;999.90;;;16.50;99.90;;;;;;5523645;26;20002;-71
2024/04/12 04:07:46;;;;;;;1999.90;999.90;;;16.40;99.90;;;;;;5523723;26;20000;-67
2024/04/12 04:10:14;;;;;;;1999.90;999.90;;;16.40;99.90;;;;;;5521717;26;20009;-71
2024/04/12 04:12:49;;;;;;;1999.90;999.90;;;16.40;99.90;;;;;;5523622;26;20392;-67
2024/04/12 04:15:15;;;;;;;1999.90;999.90;;;16.40;99.90;;;;;;5523543;26;19989;-67
2024/04/12 04:17:47;;;;;;;1999.90;999.90;;;16.40;99.90;;;;;;5523556;26;19993;-67
2024/04/12 04:20:14;;;;;;;1999.90;999.90;;;16.50;99.90;;;;;;5523372;26;19990;-71
2024/04/12 04:22:40;;;;;;;1999.90;999.90;;;16.50;99.90;;;;;;5512915;26;19998;-67
2024/04/12 04:25:10;;;;;;;1999.90;999.90;;;16.50;99.90;;;;;;5487825;26;20413;-67
2024/04/12 04:27:36;;;;;;;1999.90;999.90;;;16.60;99.90;;;;;;5490010;26;19990;-67
2024/04/12 04:30:02;;;;;;;1999.90;999.90;;;16.60;99.90;;;;;;5512969;26;20016;-67
2024/04/12 04:32:28;;;;;;;1999.90;999.90;;;16.60;99.90;;;;;;5527419;26;19997;-71
2024/04/12 04:35:04;;;;;;;1999.90;999.90;;;16.70;99.90;;;;;;5527176;26;20065;-67
2024/04/12 04:37:39;;;;;;;1999.90;999.90;;;16.70;99.90;;;;;;5527103;26;19997;-67
2024/04/12 04:40:16;;;;;;;1999.90;999.90;;;16.70;99.90;;;;;;5526897;26;19989;-71
2024/04/12 04:42:45;;;;;;;1999.90;999.90;;;16.80;99.90;;;;;;5526903;25;20004;-70
2024/04/12 04:45:17;;;;;;;1999.90;999.90;;;16.80;99.90;;;;;;5526686;26;20008;-67
2024/04/12 04:47:44;;;;;;;1999.90;999.90;;;16.70;99.90;;;;;;5526702;26;20003;-67
2024/04/12 04:50:13;;;;;;;1999.90;999.90;;;16.70;99.90;;;;;;5526989;26;19993;-70
2024/04/12 04:52:39;;;;;;;1999.90;999.90;;;16.70;99.90;;;;;;5526588;26;19993;-67
2024/04/12 04:55:07;;;;;;;1999.90;999.90;;;16.70;99.90;;;;;;5526534;26;20029;-67
2024/04/12 04:57:35;;;;;;;1999.90;999.90;;;16.80;99.90;;;;;;5525861;26;20009;-70
2024/04/12 05:00:08;;;;;;;1999.90;999.90;;;16.70;99.90;;;;;;5526408;26;19993;-67
2024/04/12 05:02:34;;;;;;;;;;;16.70;99.90;;;;;;5527335;26;20312;-67
2024/04/12 05:05:04;;;;;;;1999.90;999.90;;;16.70;99.90;;;;;;5514897;26;19995;-67
2024/04/12 05:07:34;;;;;;;1999.90;999.90;;;16.70;99.90;;;;;;5526618;25;20139;-67
2024/04/12 05:10:14;;;;;;;1999.90;999.90;;;16.70;99.90;;;;;;5538291;25;19993;-71
2024/04/12 05:12:42;;;;;;;1999.90;999.90;;;16.70;99.90;;;;;;5522171;26;20011;-67
2024/04/12 05:15:31;;;;;;;1999.90;999.90;;;16.70;99.90;;;;;;5526168;26;20001;-70
2024/04/12 05:18:03;;;;;;;1999.90;999.90;;;16.60;99.90;;;;;;5525526;25;20029;-67
2024/04/12 05:20:41;;;;;;;1999.90;999.90;;;16.60;99.90;;;;;;5525910;26;19994;-68
2024/04/12 05:23:13;;;;;;;1999.90;999.90;;;16.50;99.90;;;;;;5508805;26;20012;-67
2024/04/12 05:25:49;;;;;;;1999.90;999.90;;;16.50;99.90;;;;;;5490309;26;19995;-67
2024/04/12 05:28:15;;;;;;;1999.90;999.90;;;16.50;99.90;;;;;;5525750;26;20175;-67
2024/04/12 05:30:44;;;;;;;1999.90;999.90;;;16.60;99.90;;;;;;5525434;25;20445;-67
2024/04/12 05:33:11;;;;;;;1999.90;999.90;;;16.60;99.90;;;;;;5525161;25;20368;-67
2024/04/12 05:35:37;;;;;;;1999.90;999.90;;;16.60;99.90;;;;;;5511039;26;20050;-67
2024/04/12 05:38:09;;;;;;;1999.90;999.90;;;16.70;99.90;;;;;;5524695;26;20069;-71
2024/04/12 05:40:45;;;;;;;1999.90;999.90;;;16.60;99.90;;;;;;5503938;25;20031;-68
2024/04/12 05:43:14;;;;;;;1999.90;999.90;;;16.70;99.90;;;;;;5519114;25;20233;-67
2024/04/12 05:45:44;;;;;;;1999.90;999.90;;;16.80;99.90;;;;;;5528599;25;19993;-67
2024/04/12 05:48:14;;;;;;;1999.90;999.90;;;16.80;99.90;;;;;;5524833;25;20008;-71
2024/04/12 05:50:40;;;;;;;1999.90;999.90;;;16.80;99.90;;;;;;5524333;26;19997;-71
2024/04/12 05:53:11;;;;;;;1999.90;999.90;;;16.80;99.90;;;;;;5524528;26;19997;-67
2024/04/12 05:55:44;;;;;;;1999.90;999.90;;;16.90;99.90;;;;;;5525328;26;20354;-67
2024/04/12 05:58:14;;;;;;;1999.90;999.90;;;16.90;99.90;;;;;;5524805;26;20007;-67
2024/04/12 06:00:41;;;;;;;1999.90;999.90;;;16.90;99.90;;;;;;5509782;26;20013;-67
2024/04/12 06:03:16;;;;;;;1999.90;999.90;;;16.80;99.90;;;;;;5507713;26;20002;-67
2024/04/12 06:05:55;;;;;;;1999.90;999.90;;;16.90;99.90;;;;;;5520205;26;20304;-67
2024/04/12 06:08:22;;;;;;;1999.90;999.90;;;16.90;99.90;;;;;;5518466;25;20002;-67
2024/04/12 06:10:50;;;;;;;1999.90;999.90;;;17.00;99.90;;;;;;5508133;25;20012;-67
2024/04/12 06:13:20;;;;;;;1999.90;999.90;;;17.00;99.90;;;;;;5510102;25;20087;-67
2024/04/12 06:15:48;;;;;;;1999.90;999.90;;;17.10;99.90;;;;;;5526386;25;20378;-67
2024/04/12 06:18:16;;;;;;;1999.90;999.90;;;17.10;99.90;;;;;;5543875;25;20420;-67
2024/04/12 06:20:43;;;;;;;1999.90;999.90;;;17.10;99.90;;;;;;5522593;25;20444;-67
2024/04/12 06:23:12;;;;;;;1999.90;999.90;;;17.20;99.90;;;;;;5512553;26;20537;-67
2024/04/12 06:25:45;;;;;;;1999.90;999.90;;;17.30;99.90;;;;;;5523943;26;20505;-71
2024/04/12 06:28:12;;;;;;;1999.90;999.90;;;17.40;99.90;;;;;;5524057;26;20559;-71
2024/04/12 06:30:46;;;;;;;1999.90;999.90;;;17.50;99.90;;;;;;5525119;25;20005;-70
2024/04/12 06:33:20;;;;;;;1999.90;999.90;;;17.60;99.90;;;;;;5493122;26;19994;-67
2024/04/12 06:35:46;;;;;;;1999.90;999.90;;;17.60;99.90;;;;;;5506423;26;20009;-68
2024/04/12 06:38:17;;;;;;;1999.90;999.90;;;17.70;99.90;;;;;;5518164;26;20071;-67
2024/04/12 06:40:53;;;;;;;1999.90;999.90;;;17.80;99.90;;;;;;5496607;26;20005;-67
2024/04/12 06:43:20;;;;;;;1999.90;999.90;;;17.90;99.90;;;;;;5516370;26;20420;-67
2024/04/12 06:45:57;;;;;;;1999.90;999.90;;;18.00;99.90;;;;;;5502073;26;20081;-67
2024/04/12 06:48:26;;;;;;;1999.90;999.90;;;18.10;99.90;;;;;;5501929;26;20001;-67
2024/04/12 06:51:05;;;;;;;1999.90;999.90;;;18.20;99.90;;;;;;5518875;25;20004;-67
2024/04/12 06:53:31;;;;;;;1999.90;999.90;;;18.20;99.90;;;;;;5521236;26;20482;-70
2024/04/12 06:56:06;;;;;;;1999.90;999.90;;;18.30;99.90;;;;;;5519883;26;20012;-71
2024/04/12 06:58:38;;;;;;;1999.90;999.90;;;18.40;99.90;;;;;;5502087;26;20010;-67
2024/04/12 07:01:05;;;;;;;1999.90;999.90;;;18.50;99.90;;;;;;5505651;26;20401;-71
2024/04/12 07:03:34;;;;;;;1999.90;999.90;;;18.60;99.90;;;;;;5519634;26;20065;-67
2024/04/12 07:06:01;;;;;;;1999.90;999.90;;;18.70;99.90;;;;;;5520721;26;20570;-70
2024/04/12 07:08:27;;;;;;;1999.90;999.90;;;18.80;99.90;;;;;;5521040;26;20013;-70
2024/04/12 07:10:53;;;;;;;1999.90;999.90;;;18.90;99.90;;;;;;5508023;26;20016;-67
2024/04/12 07:13:32;;;;;;;1999.90;999.90;;;19.10;99.90;;;;;;5489458;26;20519;-67
2024/04/12 07:16:01;;;;;;;1999.90;999.90;;;19.10;99.90;;;;;;5521175;26;19997;-68
2024/04/12 07:18:28;;;;;;;1999.90;999.90;;;19.20;99.90;;;;;;5513456;26;20013;-68
2024/04/12 07:21:14;;;;;;;1999.90;999.90;;;19.20;99.90;;;;;;5520030;26;20336;-71
2024/04/12 07:23:46;;;;;;;1999.90;999.90;;;19.20;99.90;;;;;;5505177;25;20002;-68
2024/04/12 07:26:24;;;;;;;1999.90;999.90;;;19.20;99.90;;;;;;5521372;26;20042;-67
2024/04/12 07:28:57;;;;;;;1999.90;999.90;;;19.10;99.90;;;;;;5514324;26;19997;-68
2024/04/12 07:31:24;;;;;;;1999.90;999.90;;;19.10;99.90;;;;;;5516907;25;20480;-71
2024/04/12 07:33:51;;;;;;;1999.90;999.90;;;19.00;99.90;;;;;;5518003;26;20423;-70
2024/04/12 07:36:17;;;;;;;1999.90;999.90;;;19.00;99.90;;;;;;5520481;26;19998;-67
2024/04/12 07:38:43;;;;;;;1999.90;999.90;;;18.90;99.90;;;;;;5515388;26;20006;-68
2024/04/12 07:41:13;;;;;;;1999.90;999.90;;;18.90;99.90;;;;;;5517721;26;19997;-68
2024/04/12 07:43:42;;;;;;;1999.90;999.90;;;18.80;99.90;;;;;;5501480;26;20017;-70
2024/04/12 07:46:14;;;;;;;1999.90;999.90;;;18.90;99.90;;;;;;5497046;26;20002;-70
2024/04/12 07:48:47;;;;;;;1999.90;999.90;;;19.00;99.90;;;;;;5495567;26;20012;-68
2024/04/12 07:51:20;;;;;;;1999.90;999.90;;;19.20;99.90;;;;;;5510881;26;20001;-68
2024/04/12 07:53:49;;;;;;;1999.90;999.90;;;19.20;99.90;;;;;;5519066;26;19997;-68
2024/04/12 07:56:15;;;;;;;1999.90;999.90;;;18.90;99.90;;;;;;5516882;26;20228;-68
2024/04/12 07:58:42;;;;;;;1999.90;999.90;;;18.70;99.90;;;;;;5519887;26;20073;-70
2024/04/12 08:01:15;;;;;;;1999.90;999.90;;;18.90;99.90;;;;;;5523105;26;20009;-68
2024/04/12 08:03:50;;;;;;;1999.90;999.90;;;20.20;99.90;;;;;;5530665;25;20024;-68
2024/04/12 08:06:19;;;;;;;1999.90;999.90;;;21.00;99.90;;;;;;5529760;25;20002;-68
2024/04/12 08:09:03;;;;;;;1999.90;999.90;;;21.20;99.90;;;;;;5524019;26;20005;-68
2024/04/12 08:11:35;;;;;;;1999.90;999.90;;;20.90;99.90;;;;;;5516044;26;19998;-71
2024/04/12 08:14:06;;;;;;;1999.90;999.90;;;21.40;99.90;;;;;;5507307;26;20068;-71
2024/04/12 08:16:36;;;;;;;1999.90;999.90;;;22.50;99.90;;;;;;5524187;26;20005;-68
2024/04/12 08:19:03;;;;;;;1999.90;999.90;;;23.50;99.90;;;;;;5522707;26;20008;-69
2024/04/12 08:21:31;;;;;;;1999.90;999.90;;;24.40;99.90;;;;;;5523498;26;20009;-67
2024/04/12 08:23:57;;;;;;;1999.90;999.90;;;24.80;99.90;;;;;;5506467;26;20025;-70
2024/04/12 08:26:27;;;;;;;1999.90;999.90;;;25.30;99.90;;;;;;5510644;26;20115;-66
2024/04/12 08:28:54;;;;;;;1999.90;999.90;;;25.10;99.90;;;;;;5509441;26;20385;-67
2024/04/12 08:31:23;;;;;;;1999.90;999.90;;;25.70;99.90;;;;;;5510812;26;20088;-67
2024/04/12 08:33:52;;;;;;;1999.90;999.90;;;25.90;99.90;;;;;;5502691;26;20002;-67
2024/04/12 08:36:18;;;;;;;1999.90;999.90;;;26.40;99.90;;;;;;5500894;26;20314;-67
2024/04/12 08:39:11;;;;;;;1999.90;999.90;;;26.90;99.90;;;;;;5518081;26;20002;-70
2024/04/12 08:41:38;;;;;;;1999.90;999.90;;;27.40;99.90;;;;;;5505630;26;19997;-67
2024/04/12 08:44:09;;;;;;;1999.90;999.90;;;27.40;99.90;;;;;;5523276;26;20076;-67
2024/04/12 08:46:37;;;;;;;1999.90;999.90;;;26.50;99.90;;;;;;5523551;26;20013;-67
2024/04/12 08:49:03;;;;;;;1999.90;999.90;;;26.60;99.90;;;;;;5523384;26;20155;-71
2024/04/12 08:51:33;;;;;;;1999.90;999.90;;;27.20;99.90;;;;;;5522895;26;20384;-70
2024/04/12 08:54:05;;;;;;;1999.90;999.90;;;27.90;99.90;;;;;;5523581;26;20128;-68
2024/04/12 08:56:31;;;;;;;1999.90;999.90;;;28.50;99.90;;;;;;5530127;25;20016;-67
2024/04/12 08:59:05;;;;;;;1999.90;999.90;;;28.80;99.90;;;;;;5540966;25;19997;-68
2024/04/12 09:01:31;;;;;;;1999.90;999.90;;;27.80;99.90;;;;;;5522833;26;20306;-68
2024/04/12 09:04:13;;;;;;;1999.90;999.90;;;27.80;99.90;;;;;;5508542;26;20005;-71
2024/04/12 09:06:39;;;;;;;1999.90;999.90;;;28.00;99.90;;;;;;5519035;26;20398;-67
2024/04/12 09:09:04;;;;;;;1999.90;999.90;;;28.30;99.90;;;;;;5521937;26;20001;-68
2024/04/12 09:11:31;;;;;;;1999.90;999.90;;;28.60;99.90;;;;;;5517271;26;20009;-68
2024/04/12 09:14:09;;;;;;;1999.90;999.90;;;28.80;99.90;;;;;;5523064;26;20001;-67
2024/04/12 09:16:44;;;;;;;1999.90;999.90;;;28.80;99.90;;;;;;5522020;26;20009;-67
2024/04/12 09:19:14;;;;;;;1999.90;999.90;;;28.90;99.90;;;;;;5501110;26;20463;-71
2024/04/12 09:21:58;;;;;;;1999.90;999.90;;;28.90;99.90;;;;;;5511094;26;20010;-67
2024/04/12 09:24:31;;;;;;;1999.90;999.90;;;29.10;99.90;;;;;;5503217;26;20009;-67
2024/04/12 09:27:05;;;;;;;1999.90;999.90;;;29.60;99.90;;;;;;5516497;26;20420;-67
2024/04/12 09:29:32;;;;;;;1999.90;999.90;;;29.50;99.90;;;;;;5511268;26;20341;-71
2024/04/12 09:34:55;;;;;;;1999.90;999.90;;;30.10;99.90;;;;;;5522309;26;20408;-68
2024/04/12 09:45:21;;;;;;;1999.90;999.90;;;29.50;99.90;;;;;;5515567;26;20012;-71
2024/04/12 10:37:49;;;;;;;1999.90;999.90;;;23.60;99.90;;;;;;5522487;26;20007;-68
2024/04/12 10:40:16;;;;;;;1999.90;999.90;;;23.70;99.90;;;;;;5516835;26;20078;-73
2024/04/12 10:42:45;;;;;;;1999.90;999.90;;;23.70;99.90;;;;;;5522449;26;20410;-68
2024/04/12 10:45:17;;;;;;;1999.90;999.90;;;23.70;99.90;;;;;;5522753;26;20024;-68
2024/04/12 10:47:47;;;;;;;1999.90;999.90;;;23.80;99.90;;;;;;5495330;26;20013;-72
2024/04/12 10:50:13;;;;;;;1999.90;999.90;;;23.70;99.90;;;;;;5512851;26;20086;-72
2024/04/12 10:52:45;;;;;;;1999.90;999.90;;;23.70;99.90;;;;;;5522825;26;19998;-68
2024/04/12 10:55:11;;;;;;;1999.90;999.90;;;23.40;99.90;;;;;;5522430;26;20008;-68
2024/04/12 10:57:47;;;;;;;1999.90;999.90;;;23.20;99.90;;;;;;5522422;26;20008;-69
2024/04/12 11:00:17;;;;;;;1999.90;999.90;;;23.40;99.90;;;;;;5522183;26;20092;-72
2024/04/12 11:02:47;;;;;;;1999.90;999.90;;;23.10;99.90;;;;;;5522670;26;20436;-72
2024/04/12 11:07:52;;;;;;;1999.90;999.90;;;23.60;99.90;;;;;;5522410;26;20022;-68
2024/04/12 11:10:24;;;;;;;1999.90;999.90;;;23.20;99.90;;;;;;5522032;26;20009;-68
2024/04/12 11:13:01;;;;;;;1999.90;999.90;;;23.10;99.90;;;;;;5522722;26;20008;-72
2024/04/12 11:31:55;;;;;;;1999.90;999.90;;;23.90;99.90;;;;;;5528350;25;20111;-69
2024/04/12 11:34:23;;;;;;;1999.90;999.90;;;23.80;99.90;;;;;;5505211;25;20003;-69
2024/04/12 11:36:53;;;;;;;1999.90;999.90;;;23.40;99.90;;;;;;5497754;26;20331;-68
2024/04/12 11:39:25;;;;;;;1999.90;999.90;;;23.10;99.90;;;;;;5505432;26;19994;-71
2024/04/12 11:41:52;;;;;;;1999.90;999.90;;;23.10;99.90;;;;;;5498121;26;19998;-67
2024/04/12 11:44:18;;;;;;;1999.90;999.90;;;23.20;99.90;;;;;;5494146;26;20348;-68
2024/04/12 11:46:48;;;;;;;1999.90;999.90;;;23.20;99.90;;;;;;5512689;26;20001;-68
2024/04/12 11:49:28;;;;;;;1999.90;999.90;;;23.40;99.90;;;;;;5497740;26;19998;-68
2024/04/12 11:52:02;;;;;;;1999.90;999.90;;;23.50;99.90;;;;;;5489460;26;19998;-71
2024/04/12 11:54:29;;;;;;;1999.90;999.90;;;23.40;99.90;;;;;;5504371;26;20448;-71
2024/04/12 11:56:59;;;;;;;1999.90;999.90;;;23.20;99.90;;;;;;5521618;26;20033;-67
2024/04/12 11:59:29;;;;;;;1999.90;999.90;;;23.30;99.90;;;;;;5520760;26;20061;-68
2024/04/12 12:01:59;;;;;;;1999.90;999.90;;;23.40;99.90;;;;;;5519734;26;20012;-68
2024/04/12 12:04:33;;;;;;;1999.90;999.90;;;23.40;99.90;;;;;;5519076;25;20069;-68
2024/04/12 12:07:02;;;;;;;1999.90;999.90;;;23.60;99.90;;;;;;5516129;26;20114;-67
2024/04/12 12:09:31;;;;;;;1999.90;999.90;;;23.60;99.90;;;;;;5520147;26;20005;-67
2024/04/12 12:11:58;;;;;;;1999.90;999.90;;;23.40;99.90;;;;;;5520656;26;20028;-67
2024/04/12 12:14:26;;;;;;;1999.90;999.90;;;23.10;99.90;;;;;;5520454;26;20009;-67
2024/04/12 12:16:53;;;;;;;1999.90;999.90;;;23.30;99.90;;;;;;5520817;26;20008;-71
2024/04/12 12:19:19;;;;;;;1999.90;999.90;;;23.60;99.90;;;;;;5521304;26;20049;-67
2024/04/12 12:21:45;;;;;;;1999.90;999.90;;;23.90;99.90;;;;;;5521163;26;20006;-71
2024/04/12 12:24:11;;;;;;;1999.90;999.90;;;23.60;99.90;;;;;;5503330;25;20408;-67
2024/04/12 12:26:39;;;;;;;1999.90;999.90;;;23.60;99.90;;;;;;5516503;25;20135;-67
2024/04/12 12:29:06;;;;;;;1999.90;999.90;;;23.80;99.90;;;;;;5492910;26;20444;-69
2024/04/12 12:31:32;;;;;;;1999.90;999.90;;;23.80;99.90;;;;;;5519093;26;20012;-68
2024/04/12 12:33:57;;;;;;;1999.90;999.90;;;23.70;99.90;;;;;;5520950;26;19997;-68
2024/04/12 12:36:25;;;;;;;1999.90;999.90;;;23.70;99.90;;;;;;5521054;26;20004;-68
2024/04/12 12:38:51;;;;;;;1999.90;999.90;;;23.80;99.90;;;;;;5517100;26;20012;-68
2024/04/12 12:41:17;;;;;;;1999.90;999.90;;;24.00;99.90;;;;;;5515533;26;20001;-72
2024/04/12 12:43:44;;;;;;;1999.90;999.90;;;24.00;99.90;;;;;;5520389;26;20008;-68
2024/04/12 12:46:16;;;;;;;1999.90;999.90;;;24.00;99.90;;;;;;5520428;25;19997;-69
2024/04/12 12:48:42;;;;;;;1999.90;999.90;;;24.00;99.90;;;;;;5550505;25;20029;-69
2024/04/12 12:51:10;;;;;;;1999.90;999.90;;;24.00;99.90;;;;;;5533075;25;19996;-68
2024/04/12 12:53:36;;;;;;;1999.90;999.90;;;24.00;99.90;;;;;;5523982;26;20432;-67
2024/04/12 12:56:06;;;;;;;1999.90;999.90;;;23.90;99.90;;;;;;5522892;26;20444;-68
2024/04/12 12:58:33;;;;;;;1999.90;999.90;;;23.90;99.90;;;;;;5518615;26;20041;-72
2024/04/12 13:01:02;;;;;;;1999.90;999.90;;;24.00;99.90;;;;;;5519006;25;20080;-68
2024/04/12 13:03:30;;;;;;;1999.90;999.90;;;24.20;99.90;;;;;;5523586;26;20438;-70
2024/04/12 13:05:57;;;;;;;1999.90;999.90;;;24.20;99.90;;;;;;5523845;26;20001;-68
2024/04/12 13:08:25;;;;;;;1999.90;999.90;;;24.30;99.90;;;;;;5523881;26;20328;-71
2024/04/12 13:10:56;;;;;;;1999.90;999.90;;;24.40;99.90;;;;;;5523721;26;20012;-68
2024/04/12 13:13:22;;;;;;;1999.90;999.90;;;24.20;99.90;;;;;;5523821;26;20009;-72
2024/04/12 13:15:54;;;;;;;1999.90;999.90;;;24.20;99.90;;;;;;5523850;26;20421;-67
2024/04/12 13:18:21;;;;;;;1999.90;999.90;;;24.30;99.90;;;;;;5510883;26;19997;-68
2024/04/12 13:20:50;;;;;;;1999.90;999.90;;;24.40;99.90;;;;;;5494268;26;20002;-68
2024/04/12 13:23:17;;;;;;;1999.90;999.90;;;24.50;99.90;;;;;;5505349;26;20005;-68
2024/04/12 13:25:46;;;;;;;1999.90;999.90;;;24.40;99.90;;;;;;5492485;26;20016;-68
2024/04/12 13:28:11;;;;;;;1999.90;999.90;;;24.50;99.90;;;;;;5552986;25;20064;-68
2024/04/12 13:30:41;;;;;;;1999.90;999.90;;;24.50;99.90;;;;;;5521566;25;20013;-67
2024/04/12 13:33:08;;;;;;;1999.90;999.90;;;24.70;99.90;;;;;;5514593;26;19997;-68